Bookmark and Share
Track history (hours):
 

MV Asphalt Sailor

Last reported at 2013-Jan-30 15:22 UTC. Time now 2014-Apr-18 00:19 UTC.
Position N 38°45' W 076°26'.
Warning: this ship's position is years out of date!

Length 109 m; draft 5.1 m.

Type: Ship (hazmat cat D). MMSI: 250000767.

NotesDate/timePositionNaut miles runAvg speedWind from/ knotsBaromVisibWave heightAir tempDewpointWater temp
2013-Jan-30 15:22N 38°45' W 076°26'1012.3
2013-Jan-30 14:33N 38°55' W 076°24'1211.6
2013-Jan-30 13:33N 39°07' W 076°24'1010.0
2013-Jan-30 12:33N 39°13' W 076°34'1 1.2
2013-Jan-30 11:36N 39°13' W 076°35'0 0.0
2013-Jan-30 10:33N 39°13' W 076°35'0 0.0
2013-Jan-30 09:33N 39°13' W 076°35'0 0.0
2013-Jan-30 08:33N 39°13' W 076°35'0 0.0
2013-Jan-30 07:33N 39°13' W 076°35'0 0.0
2013-Jan-30 06:32N 39°13' W 076°35'0 0.0
2013-Jan-30 05:35N 39°13' W 076°35'0 0.0
2013-Jan-30 04:32N 39°13' W 076°35'0 0.0
2013-Jan-30 03:32N 39°13' W 076°35'0 0.0
2013-Jan-30 02:32N 39°13' W 076°35'0 0.0
2013-Jan-30 01:32N 39°13' W 076°35'0 0.0
2013-Jan-30 00:32N 39°13' W 076°35'0 0.0
2013-Jan-29 23:32N 39°13' W 076°35'0 0.0
2013-Jan-29 22:32N 39°13' W 076°35'0 0.0
2013-Jan-29 21:32N 39°13' W 076°35'0 0.0
2013-Jan-29 20:32N 39°13' W 076°35'0 0.0
2013-Jan-29 19:33N 39°13' W 076°35'2 2.3
2013-Jan-29 18:31N 39°14' W 076°33'0 0.0
2013-Jan-29 17:32N 39°14' W 076°33'0 0.1
2013-Jan-29 16:32N 39°14' W 076°33'0 0.0
2013-Jan-29 15:32N 39°14' W 076°33'0 0.0
2013-Jan-29 14:31N 39°14' W 076°33'0 0.0
2013-Jan-29 13:28N 39°14' W 076°33'0 0.0
2013-Jan-29 12:31N 39°14' W 076°33'0 0.0
2013-Jan-29 11:43N 39°14' W 076°33'0 0.0
2013-Jan-29 10:31N 39°14' W 076°32'0 0.0
2013-Jan-29 09:31N 39°14' W 076°32'0 0.0
2013-Jan-29 08:33N 39°14' W 076°32'0 0.0
2013-Jan-29 07:33N 39°14' W 076°32'0 0.0
2013-Jan-29 06:31N 39°14' W 076°32'4 3.9
2013-Jan-29 05:36N 39°12' W 076°29'10 9.5
2013-Jan-29 04:33N 39°12' W 076°16'109 6.4
2013-Jan-28 11:24N 39°23' W 073°56'911.0
2013-Jan-28 10:32N 39°30' W 073°48'1212.2
2013-Jan-28 09:33N 39°39' W 073°37'  
2013-Jan-20 23:27N 39°23' W 073°52'  

Dump ship's entire track history

sailing weather and tide predictions

MV Asphalt Sailor — EIWQ — position and weather